Lutz, FL (33548)

9:08 AM EDT on September 23, 2014 (GMT -0400)
Old Reliable Groves, Lutz, FL | Change Station
CLOSE
Current Station
Personal Weather Station
Location: Lutz, FL
Elevation: 69 ft
Nearby Weather Stations
Active Advisory: Flood Warning

Elev 69 ft 28.12 °N, 82.47 °W | Updated 4 seconds ago

Mostly Cloudy
Mostly Cloudy
73.9 °F
Feels Like 70 °F
N
0.0
Wind Variable Wind from WNW
Gusts 1.0 mph

Today
High -- | Low -- °F
--% Chance of Precip.
Yesterday
High -- | Low -- °F
Precip. -- in
7:18 AM 7:25 PM
Waning Crescent, 0% visible
Pressure 30.02 in
Visibility 10.0 miles
Clouds Few 2000 ft
Mostly Cloudy 9000 ft
Overcast 20000 ft
Heat Index 70 °F
Dew Point 73 °F
Humidity 97%
Rainfall 0.01 in
Snow Depth Not available.
UV 1 out of 12
Pollen 4.90 out of 12
Air Quality Not available.
Flu Activity Not available.
METAR KTPA 231253Z VRB03KT 10SM FEW020 BKN090 OVC200 24/21 A3002 RMK AO2 SLP166 T02390211

More Conditions Fewer Conditions

Pressure 30.02 in
Visibility 10.0 miles
Clouds Few 2000 ft
Mostly Cloudy 9000 ft
Overcast 20000 ft
Heat Index 70 °F
Dew Point 73 °F
Humidity 97%
Rainfall 0.01 in
Snow Depth Not available.
UV 1 out of 12
Pollen 4.90 out of 12
Air Quality Not available.
Flu Activity Not available.
METAR KTPA 231253Z VRB03KT 10SM FEW020 BKN090 OVC200 24/21 A3002 RMK AO2 SLP166 T02390211

More Conditions Fewer Conditions

10-Day Weather Forecast

Almanac

Astronomy

Sep. 23, 2014 Rise Set
Actual Time 7:18 AM EDT 7:25 PM EDT
Civil Twilight 6:55 AM EDT 7:48 PM EDT
Nautical Twilight 6:28 AM EDT 8:15 PM EDT
Astronomical Twilight 6:00 AM EDT 8:43 PM EDT
Moon 6:43 AM EDT 7:04 PM EDT
Length of Visible Light 12h 53m
Length of Day
12h 06m
Tomorrow will be 1m 39s shorter.
Waning Crescent, 0% of the Moon is Illuminated
Today
Waning Crescent
Sep 24
New
Oct 1
First Quarter
Oct 8
Full
Oct 15
Last Quarter

Today's Extremes

State Highs State Lows

Community

WunderPhotos

Upload Photos

1,755,667 photos uploaded!

WunderBlogs® & News

Nearby

Snow Depth

Station Depth Elevation
No new snow has been reported.

Earthquake Activity

City Distance Mag. Time & Date
No recent earthquake activity has been reported nearby.
Minimum magnitude displayed is 2.5.

Coastal Water Temperatures

Place Temperature
St Petersburg, FL 84.9 °F
Old Port Tampa, FL 82.0 °F

Nearby Weather Stations